createdAt,value
2022-08-20T00:00:51.293Z,21.53
2022-08-20T00:01:52.298Z,21.53
2022-08-20T00:02:51.274Z,21.50
2022-08-20T00:03:53.170Z,21.51
2022-08-20T00:04:51.253Z,21.48
2022-08-20T00:05:51.245Z,21.48
2022-08-20T00:06:52.237Z,21.45
2022-08-20T00:07:51.251Z,21.44
2022-08-20T00:08:51.245Z,21.43
2022-08-20T00:09:51.202Z,21.43
2022-08-20T00:10:54.934Z,21.43
2022-08-20T00:11:51.186Z,21.44
2022-08-20T00:12:51.204Z,21.43
2022-08-20T00:13:51.190Z,21.44
2022-08-20T00:14:51.161Z,21.45
2022-08-20T00:15:51.139Z,21.45
2022-08-20T00:16:51.138Z,21.45
2022-08-20T00:17:51.118Z,21.45
2022-08-20T00:18:51.144Z,21.45
2022-08-20T00:19:51.099Z,21.43
2022-08-20T00:20:51.091Z,21.37
2022-08-20T00:21:51.080Z,21.34
2022-08-20T00:22:52.071Z,21.34
2022-08-20T00:23:51.091Z,21.32
2022-08-20T00:24:51.062Z,21.28
2022-08-20T00:25:51.043Z,21.23
2022-08-20T00:26:52.630Z,21.20
2022-08-20T00:27:51.022Z,21.18
2022-08-20T00:28:51.033Z,21.16
2022-08-20T00:29:50.994Z,21.16
2022-08-20T00:30:50.995Z,21.18
2022-08-20T00:31:50.974Z,21.19
2022-08-20T00:32:50.974Z,21.20
2022-08-20T00:33:50.993Z,21.20
2022-08-20T00:34:50.955Z,21.22
2022-08-20T00:35:50.936Z,21.22
2022-08-20T00:36:50.935Z,21.23
2022-08-20T00:37:50.920Z,21.23
2022-08-20T00:38:50.934Z,21.25
2022-08-20T00:39:50.933Z,21.25
2022-08-20T00:40:50.939Z,21.26
2022-08-20T00:41:50.877Z,21.26
2022-08-20T00:42:50.879Z,21.26
2022-08-20T00:43:50.888Z,21.28
2022-08-20T00:44:50.859Z,21.26
2022-08-20T00:45:50.840Z,21.29
2022-08-20T00:46:50.829Z,21.28
2022-08-20T00:47:51.300Z,21.29
2022-08-20T00:48:50.810Z,21.28
2022-08-20T00:49:50.792Z,21.29
2022-08-20T00:50:50.792Z,21.28
2022-08-20T00:51:50.790Z,21.29
2022-08-20T00:52:50.769Z,21.30
2022-08-20T00:53:50.775Z,21.29
2022-08-20T00:54:50.754Z,21.26
2022-08-20T00:55:50.733Z,21.26
2022-08-20T00:56:50.727Z,21.26
2022-08-20T00:58:00.003Z,21.22
2022-08-20T00:58:51.726Z,21.22
2022-08-20T00:59:50.692Z,21.20
2022-08-20T01:00:50.686Z,21.20
2022-08-20T01:01:55.067Z,21.22
2022-08-20T01:02:51.677Z,21.19
2022-08-20T01:03:50.676Z,21.20
2022-08-20T01:04:50.638Z,21.22
2022-08-20T01:05:50.628Z,21.20
2022-08-20T01:06:50.627Z,21.18
2022-08-20T01:07:50.609Z,21.16
2022-08-20T01:08:50.627Z,21.11
2022-08-20T01:09:59.033Z,21.08
2022-08-20T01:10:51.580Z,21.03
2022-08-20T01:11:50.588Z,21.00
2022-08-20T01:12:55.554Z,21.01
2022-08-20T01:13:51.581Z,20.98
2022-08-20T01:14:50.532Z,20.92
2022-08-20T01:15:50.532Z,20.90
2022-08-20T01:16:50.513Z,20.89
2022-08-20T01:17:50.529Z,20.92
2022-08-20T01:18:50.524Z,20.92
2022-08-20T01:19:50.491Z,20.95
2022-08-20T01:20:50.496Z,20.97
2022-08-20T01:21:50.478Z,20.98
2022-08-20T01:22:50.455Z,20.98
2022-08-20T01:23:50.475Z,21.00
2022-08-20T01:24:50.437Z,21.01
2022-08-20T01:25:50.428Z,21.00
2022-08-20T01:26:50.417Z,20.98
2022-08-20T01:27:50.943Z,21.00
2022-08-20T01:28:51.419Z,20.98
2022-08-20T01:29:50.398Z,20.95
2022-08-20T01:30:50.379Z,20.92
2022-08-20T01:31:50.369Z,20.92
2022-08-20T01:32:50.357Z,20.90
2022-08-20T01:33:50.378Z,20.86
2022-08-20T01:34:50.342Z,20.85
2022-08-20T01:35:50.335Z,20.86
2022-08-20T01:36:50.310Z,20.86
2022-08-20T01:37:50.331Z,20.88
2022-08-20T01:38:54.151Z,20.86
2022-08-20T01:39:50.344Z,20.85
2022-08-20T01:40:50.273Z,20.86
2022-08-20T01:41:50.275Z,20.86
2022-08-20T01:42:51.124Z,20.86
2022-08-20T01:43:51.276Z,20.89
2022-08-20T01:44:50.234Z,20.89
2022-08-20T01:45:50.225Z,20.89
2022-08-20T01:46:50.214Z,20.90
2022-08-20T01:47:50.208Z,20.89
2022-08-20T01:48:50.215Z,20.89
2022-08-20T01:49:50.187Z,20.89
2022-08-20T01:50:50.175Z,20.89
2022-08-20T01:51:50.166Z,20.90
2022-08-20T01:52:50.159Z,20.90
2022-08-20T01:53:50.169Z,20.90
2022-08-20T01:54:50.136Z,20.89
2022-08-20T01:55:50.126Z,20.86
2022-08-20T01:56:50.108Z,20.86
2022-08-20T01:57:50.136Z,20.86
2022-08-20T01:58:50.119Z,20.82
2022-08-20T01:59:51.087Z,20.79
2022-08-20T02:00:50.070Z,20.79
2022-08-20T02:01:50.093Z,20.77
2022-08-20T02:02:50.053Z,20.75
2022-08-20T02:03:50.072Z,20.79
2022-08-20T02:04:50.031Z,20.79
2022-08-20T02:05:50.023Z,20.80
2022-08-20T02:06:57.081Z,20.80
2022-08-20T02:07:51.004Z,20.80
2022-08-20T02:08:50.013Z,20.77
2022-08-20T02:09:49.989Z,20.77
2022-08-20T02:10:49.965Z,20.75
2022-08-20T02:11:49.962Z,20.74
2022-08-20T02:12:49.954Z,20.73
2022-08-20T02:13:49.964Z,20.70
2022-08-20T02:14:49.926Z,20.71
2022-08-20T02:15:49.926Z,20.71
2022-08-20T02:16:54.993Z,20.73
2022-08-20T02:17:50.970Z,20.70
2022-08-20T02:18:49.908Z,20.65
2022-08-20T02:19:49.878Z,20.64
2022-08-20T02:20:49.870Z,20.61
2022-08-20T02:21:49.858Z,20.60
2022-08-20T02:22:50.534Z,20.58
2022-08-20T02:23:49.861Z,20.55
2022-08-20T02:24:49.850Z,20.53
2022-08-20T02:25:49.822Z,20.53
2022-08-20T02:26:49.802Z,20.53
2022-08-20T02:27:49.858Z,20.53
2022-08-20T02:28:49.809Z,20.50
2022-08-20T02:29:49.781Z,20.49
2022-08-20T02:30:49.761Z,20.50
2022-08-20T02:32:24.847Z,20.52
2022-08-20T02:32:50.742Z,20.53
2022-08-20T02:34:22.258Z,20.55
2022-08-20T02:34:50.723Z,20.56
2022-08-20T02:35:49.715Z,20.56
2022-08-20T02:36:49.703Z,20.53
2022-08-20T02:37:49.760Z,20.49
2022-08-20T02:38:49.718Z,20.49
2022-08-20T02:39:49.719Z,20.46
2022-08-20T02:40:49.658Z,20.48
2022-08-20T02:41:49.657Z,20.46
2022-08-20T02:42:49.639Z,20.49
2022-08-20T02:43:49.658Z,20.46
2022-08-20T02:44:49.625Z,20.48
2022-08-20T02:45:49.626Z,20.48
2022-08-20T02:46:49.600Z,20.46
2022-08-20T02:47:49.627Z,20.49
2022-08-20T02:48:49.600Z,20.50
2022-08-20T02:49:49.569Z,20.52
2022-08-20T02:50:49.559Z,20.53
2022-08-20T02:51:49.551Z,20.52
2022-08-20T02:52:51.876Z,20.52
2022-08-20T02:53:49.561Z,20.53
2022-08-20T02:54:49.521Z,20.52
2022-08-20T02:55:49.513Z,20.52
2022-08-20T02:56:49.491Z,20.52
2022-08-20T02:57:49.556Z,20.52
2022-08-20T02:58:49.504Z,20.50
2022-08-20T02:59:49.472Z,20.46
2022-08-20T03:00:49.454Z,20.44
2022-08-20T03:02:00.001Z,20.41
2022-08-20T03:02:50.433Z,20.39
2022-08-20T03:03:49.454Z,20.39
2022-08-20T03:04:49.415Z,20.37
2022-08-20T03:05:49.408Z,20.36
2022-08-20T03:06:49.395Z,20.36
2022-08-20T03:07:49.404Z,20.36
2022-08-20T03:08:49.406Z,20.36
2022-08-20T03:09:49.377Z,20.34
2022-08-20T03:10:49.356Z,20.36
2022-08-20T03:11:49.353Z,20.37
2022-08-20T03:12:49.331Z,20.37
2022-08-20T03:13:49.349Z,20.36
2022-08-20T03:14:49.310Z,20.36
2022-08-20T03:15:49.300Z,20.36
2022-08-20T03:16:49.289Z,20.34
2022-08-20T03:17:49.346Z,20.33
2022-08-20T03:18:52.021Z,20.32
2022-08-20T03:19:49.270Z,20.30
2022-08-20T03:20:52.080Z,20.29
2022-08-20T03:21:49.250Z,20.30
2022-08-20T03:22:49.241Z,20.32
2022-08-20T03:23:49.243Z,20.32
2022-08-20T03:24:49.203Z,20.32
2022-08-20T03:25:49.204Z,20.34
2022-08-20T03:26:49.185Z,20.36
2022-08-20T03:27:53.161Z,20.34
2022-08-20T03:28:50.204Z,20.33
2022-08-20T03:29:49.165Z,20.32
2022-08-20T03:30:49.146Z,20.33
2022-08-20T03:31:49.147Z,20.33
2022-08-20T03:32:49.129Z,20.32
2022-08-20T03:33:52.980Z,20.30
2022-08-20T03:34:49.116Z,20.27
2022-08-20T03:35:49.098Z,20.27
2022-08-20T03:36:49.089Z,20.27
2022-08-20T03:37:49.086Z,20.26
2022-08-20T03:38:49.108Z,20.26
2022-08-20T03:39:49.102Z,20.27
2022-08-20T03:40:49.054Z,20.29
2022-08-20T03:41:49.040Z,20.30
2022-08-20T03:42:49.030Z,20.32
2022-08-20T03:43:49.048Z,20.32
2022-08-20T03:44:49.002Z,20.33
2022-08-20T03:45:49.994Z,20.33
2022-08-20T03:46:48.991Z,20.34
2022-08-20T03:47:48.973Z,20.36
2022-08-20T03:48:49.014Z,20.37
2022-08-20T03:49:48.964Z,20.41
2022-08-20T03:50:48.943Z,20.37
2022-08-20T03:51:57.791Z,20.34
2022-08-20T03:52:49.924Z,20.32
2022-08-20T03:53:48.943Z,20.27
2022-08-20T03:54:48.906Z,20.27
2022-08-20T03:55:54.031Z,20.23
2022-08-20T03:56:49.846Z,20.23
2022-08-20T03:57:48.826Z,20.22
2022-08-20T03:58:48.836Z,20.23
2022-08-20T03:59:54.711Z,20.23
2022-08-20T04:00:49.837Z,20.23
2022-08-20T04:01:48.916Z,20.23
2022-08-20T04:02:48.793Z,20.23
2022-08-20T04:03:52.151Z,20.22
2022-08-20T04:04:49.740Z,20.22
2022-08-20T04:05:48.768Z,20.22
2022-08-20T04:06:48.721Z,20.23
2022-08-20T04:07:48.721Z,20.25
2022-08-20T04:08:48.734Z,20.26
2022-08-20T04:09:48.720Z,20.27
2022-08-20T04:10:48.685Z,20.30
2022-08-20T04:11:48.683Z,20.32
2022-08-20T04:12:52.744Z,20.32
2022-08-20T04:13:48.683Z,20.36
2022-08-20T04:14:48.644Z,20.33
2022-08-20T04:15:48.644Z,20.30
2022-08-20T04:16:49.057Z,20.29
2022-08-20T04:17:48.615Z,20.30
2022-08-20T04:19:00.653Z,20.30
2022-08-20T04:19:49.602Z,20.29
2022-08-20T04:20:48.585Z,20.27
2022-08-20T04:21:48.637Z,20.26
2022-08-20T04:22:50.811Z,20.26
2022-08-20T04:23:49.577Z,20.26
2022-08-20T04:24:48.538Z,20.26
2022-08-20T04:25:48.538Z,20.25
2022-08-20T04:26:48.521Z,20.26
2022-08-20T04:27:48.519Z,20.27
2022-08-20T04:28:48.519Z,20.26
2022-08-20T04:29:48.490Z,20.25
2022-08-20T04:30:52.033Z,20.25
2022-08-20T04:31:48.482Z,20.23
2022-08-20T04:32:48.468Z,20.23
2022-08-20T04:33:48.481Z,20.22
2022-08-20T04:34:48.441Z,20.19
2022-08-20T04:35:48.433Z,20.18
2022-08-20T04:36:48.424Z,20.18
2022-08-20T04:37:48.424Z,20.17
2022-08-20T04:38:50.210Z,20.18
2022-08-20T04:39:48.436Z,20.18
2022-08-20T04:40:48.377Z,20.19
2022-08-20T04:41:48.384Z,20.19
2022-08-20T04:42:48.355Z,20.23
2022-08-20T04:43:49.376Z,20.22
2022-08-20T04:44:48.335Z,20.22
2022-08-20T04:45:48.334Z,20.19
2022-08-20T04:46:48.327Z,20.18
2022-08-20T04:47:48.309Z,20.17
2022-08-20T04:48:49.215Z,20.15
2022-08-20T04:49:48.289Z,20.17
2022-08-20T04:50:48.279Z,20.15
2022-08-20T04:51:48.272Z,20.15
2022-08-20T04:52:48.258Z,20.12
2022-08-20T04:53:52.287Z,20.09
2022-08-20T04:54:49.230Z,20.09
2022-08-20T04:55:48.230Z,20.05
2022-08-20T04:56:48.220Z,20.02
2022-08-20T04:57:48.213Z,20.04
2022-08-20T04:58:48.220Z,20.04
2022-08-20T04:59:48.189Z,20.02
2022-08-20T05:00:48.221Z,20.02
2022-08-20T05:01:48.181Z,20.04
2022-08-20T05:02:48.152Z,20.04
2022-08-20T05:03:48.201Z,20.04
2022-08-20T05:04:48.134Z,20.04
2022-08-20T05:05:48.125Z,20.04
2022-08-20T05:06:48.112Z,20.02
2022-08-20T05:07:48.112Z,20.02
2022-08-20T05:08:48.124Z,20.05
2022-08-20T05:09:48.096Z,20.09
2022-08-20T05:10:48.075Z,20.14
2022-08-20T05:11:48.066Z,20.15
2022-08-20T05:12:56.899Z,20.18
2022-08-20T05:13:49.067Z,20.23
2022-08-20T05:14:48.037Z,20.26
2022-08-20T05:15:48.035Z,20.27
2022-08-20T05:16:48.017Z,20.32
2022-08-20T05:17:48.017Z,20.33
2022-08-20T05:18:52.258Z,20.36
2022-08-20T05:19:47.989Z,20.37
2022-08-20T05:20:47.970Z,20.41
2022-08-20T05:21:47.971Z,20.44
2022-08-20T05:22:47.950Z,20.46
2022-08-20T05:23:47.970Z,20.48
2022-08-20T05:24:47.939Z,20.49
2022-08-20T05:25:47.923Z,20.50
2022-08-20T05:26:47.920Z,20.52
2022-08-20T05:27:47.970Z,20.52
2022-08-20T05:28:58.013Z,20.53
2022-08-20T05:29:48.883Z,20.52
2022-08-20T05:30:47.874Z,20.50
2022-08-20T05:31:47.873Z,20.49
2022-08-20T05:32:47.855Z,20.46
2022-08-20T05:33:47.956Z,20.46
2022-08-20T05:34:47.843Z,20.44
2022-08-20T05:35:47.816Z,20.44
2022-08-20T05:36:49.101Z,20.46
2022-08-20T05:37:47.805Z,20.44
2022-08-20T05:38:49.634Z,20.46
2022-08-20T05:39:47.820Z,20.42
2022-08-20T05:40:47.776Z,20.42
2022-08-20T05:41:47.761Z,20.41
2022-08-20T05:42:47.756Z,20.37
2022-08-20T05:43:47.870Z,20.37
2022-08-20T05:44:47.732Z,20.33
2022-08-20T05:45:47.722Z,20.30
2022-08-20T05:46:47.710Z,20.30
2022-08-20T05:47:47.700Z,20.30
2022-08-20T05:48:48.712Z,20.30
2022-08-20T05:49:47.679Z,20.30
2022-08-20T05:50:47.671Z,20.32
2022-08-20T05:51:47.665Z,20.32
2022-08-20T05:52:47.653Z,20.32
2022-08-20T05:53:47.764Z,20.33
2022-08-20T05:54:47.668Z,20.33
2022-08-20T05:55:47.621Z,20.33
2022-08-20T05:56:47.612Z,20.34
2022-08-20T05:57:47.595Z,20.36
2022-08-20T05:58:47.639Z,20.36
2022-08-20T05:59:47.575Z,20.37
2022-08-20T06:00:47.664Z,20.39
2022-08-20T06:01:47.559Z,20.41
2022-08-20T06:02:47.555Z,20.39
2022-08-20T06:03:47.585Z,20.41
2022-08-20T06:04:47.549Z,20.44
2022-08-20T06:05:48.518Z,20.44
2022-08-20T06:06:47.813Z,20.44
2022-08-20T06:07:47.498Z,20.42
2022-08-20T06:08:47.519Z,20.42
2022-08-20T06:09:47.472Z,20.44
2022-08-20T06:10:47.469Z,20.44
2022-08-20T06:11:47.449Z,20.46
2022-08-20T06:12:47.457Z,20.48
2022-08-20T06:13:47.569Z,20.49
2022-08-20T06:14:47.430Z,20.49
2022-08-20T06:15:47.411Z,20.50
2022-08-20T06:16:57.341Z,20.49
2022-08-20T06:17:58.259Z,20.52
2022-08-20T06:18:48.413Z,20.53
2022-08-20T06:19:47.376Z,20.53
2022-08-20T06:20:47.365Z,20.50
2022-08-20T06:21:47.354Z,20.52
2022-08-20T06:22:47.362Z,20.52
2022-08-20T06:23:56.925Z,20.53
2022-08-20T06:24:48.326Z,20.55
2022-08-20T06:25:47.315Z,20.55
2022-08-20T06:26:47.307Z,20.53
2022-08-20T06:27:47.296Z,20.52
2022-08-20T06:28:47.310Z,20.50
2022-08-20T06:29:47.269Z,20.52
2022-08-20T06:30:47.258Z,20.52
2022-08-20T06:31:47.248Z,20.50
2022-08-20T06:32:47.239Z,20.49
2022-08-20T06:33:47.233Z,20.48
2022-08-20T06:34:49.808Z,20.42
2022-08-20T06:35:47.209Z,20.41
2022-08-20T06:36:47.200Z,20.39
2022-08-20T06:37:47.191Z,20.36
2022-08-20T06:38:47.182Z,20.34
2022-08-20T06:39:47.222Z,20.34
2022-08-20T06:40:47.163Z,20.36
2022-08-20T06:41:47.145Z,20.34
2022-08-20T06:42:48.806Z,20.34
2022-08-20T06:43:47.125Z,20.36
2022-08-20T06:44:47.164Z,20.34
2022-08-20T06:45:47.109Z,20.36
2022-08-20T06:46:47.102Z,20.36
2022-08-20T06:47:47.085Z,20.36
2022-08-20T06:48:47.083Z,20.33
2022-08-20T06:49:47.086Z,20.33
2022-08-20T06:50:47.850Z,20.32
2022-08-20T06:51:50.080Z,20.30
2022-08-20T06:53:03.081Z,20.26
2022-08-20T06:53:48.037Z,20.25
2022-08-20T06:54:47.039Z,20.26
2022-08-20T06:55:48.549Z,20.27
2022-08-20T06:56:46.999Z,20.27
2022-08-20T06:57:46.978Z,20.27
2022-08-20T06:58:46.978Z,20.27
2022-08-20T06:59:52.321Z,20.32
2022-08-20T07:00:47.996Z,20.33
2022-08-20T07:01:46.968Z,20.37
2022-08-20T07:02:46.940Z,20.44
2022-08-20T07:03:54.768Z,20.44
2022-08-20T07:04:47.940Z,20.46
2022-08-20T07:05:46.903Z,20.48
2022-08-20T07:06:46.912Z,20.49
2022-08-20T07:07:46.885Z,20.49
2022-08-20T07:08:46.922Z,20.52
2022-08-20T07:09:46.872Z,20.52
2022-08-20T07:10:46.860Z,20.55
2022-08-20T07:11:46.844Z,20.55
2022-08-20T07:12:46.881Z,20.53
2022-08-20T07:13:46.845Z,20.56
2022-08-20T07:14:46.818Z,20.58
2022-08-20T07:15:46.805Z,20.56
2022-08-20T07:16:46.816Z,20.58
2022-08-20T07:17:46.795Z,20.60
2022-08-20T07:18:46.797Z,20.56
2022-08-20T07:19:46.757Z,20.56
2022-08-20T07:20:46.757Z,20.55
2022-08-20T07:21:46.746Z,20.52
2022-08-20T07:22:46.729Z,20.52
2022-08-20T07:23:46.739Z,20.50
2022-08-20T07:24:49.105Z,20.50
2022-08-20T07:25:46.700Z,20.50
2022-08-20T07:26:46.690Z,20.50
2022-08-20T07:27:46.690Z,20.53
2022-08-20T07:28:46.698Z,20.55
2022-08-20T07:29:46.661Z,20.60
2022-08-20T07:30:56.515Z,20.61
2022-08-20T07:31:48.181Z,20.64
2022-08-20T07:32:46.632Z,20.67
2022-08-20T07:33:46.623Z,20.70
2022-08-20T07:34:46.640Z,20.74
2022-08-20T07:35:46.594Z,20.75
2022-08-20T07:36:46.600Z,20.77
2022-08-20T07:37:46.576Z,20.79
2022-08-20T07:38:46.576Z,20.82
2022-08-20T07:39:46.604Z,20.83
2022-08-20T07:40:46.558Z,20.83
2022-08-20T07:41:53.460Z,20.83
2022-08-20T07:42:47.529Z,20.88
2022-08-20T07:43:46.519Z,20.92
2022-08-20T07:44:46.537Z,20.93
2022-08-20T07:45:49.841Z,20.95
2022-08-20T07:46:47.489Z,20.97
2022-08-20T07:47:46.477Z,20.97
2022-08-20T07:48:46.469Z,20.93
2022-08-20T07:49:46.478Z,20.90
2022-08-20T07:50:46.460Z,20.92
2022-08-20T07:51:46.430Z,20.92
2022-08-20T07:52:46.430Z,20.92
2022-08-20T07:53:46.413Z,20.95
2022-08-20T07:54:46.433Z,20.97
2022-08-20T07:55:57.120Z,21.01
2022-08-20T07:56:47.393Z,21.03
2022-08-20T07:57:46.372Z,21.05
2022-08-20T07:58:46.365Z,21.05
2022-08-20T07:59:46.381Z,21.05
2022-08-20T08:00:46.377Z,21.08
2022-08-20T08:01:46.350Z,21.10
2022-08-20T08:02:46.325Z,21.13
2022-08-20T08:03:49.783Z,21.14
2022-08-20T08:04:46.325Z,21.18
2022-08-20T08:05:46.286Z,21.19
2022-08-20T08:06:46.286Z,21.22
2022-08-20T08:07:46.327Z,21.23
2022-08-20T08:08:46.268Z,21.25
2022-08-20T08:09:46.275Z,21.26
2022-08-20T08:10:46.245Z,21.29
2022-08-20T08:11:47.709Z,21.32
2022-08-20T08:12:46.229Z,21.34
2022-08-20T08:13:46.208Z,21.35
2022-08-20T08:14:46.230Z,21.37
2022-08-20T08:15:46.190Z,21.37
2022-08-20T08:16:46.183Z,21.40
2022-08-20T08:17:46.170Z,21.41
2022-08-20T08:18:46.168Z,21.45
2022-08-20T08:19:46.171Z,21.48
2022-08-20T08:20:46.965Z,21.55
2022-08-20T08:21:46.216Z,21.58
2022-08-20T08:22:46.130Z,21.60
2022-08-20T08:23:46.109Z,21.65
2022-08-20T08:24:56.608Z,21.66
2022-08-20T08:25:47.085Z,21.67
2022-08-20T08:26:46.088Z,21.69
2022-08-20T08:27:46.066Z,21.69
2022-08-20T08:28:46.067Z,21.71
2022-08-20T08:29:46.074Z,21.74
2022-08-20T08:30:46.036Z,21.75
2022-08-20T08:31:46.047Z,21.77
2022-08-20T08:32:46.018Z,21.77
2022-08-20T08:33:46.007Z,21.80
2022-08-20T08:34:46.025Z,21.82
2022-08-20T08:35:45.988Z,21.84
2022-08-20T08:36:45.980Z,21.85
2022-08-20T08:37:45.968Z,21.85
2022-08-20T08:38:45.960Z,21.88
2022-08-20T08:39:46.013Z,21.90
2022-08-20T08:40:46.091Z,21.91
2022-08-20T08:41:45.956Z,21.94
2022-08-20T08:42:45.921Z,21.94
2022-08-20T08:43:45.909Z,21.98
2022-08-20T08:44:45.923Z,22.01
2022-08-20T08:45:45.889Z,22.01
2022-08-20T08:46:45.883Z,22.03
2022-08-20T08:47:45.862Z,22.03
2022-08-20T08:48:45.866Z,22.04
2022-08-20T08:49:45.877Z,22.06
2022-08-20T08:50:53.499Z,22.07
2022-08-20T08:51:46.826Z,22.11
2022-08-20T08:52:45.827Z,22.15
2022-08-20T08:53:45.805Z,22.34
2022-08-20T08:54:45.826Z,22.58
2022-08-20T08:55:45.790Z,22.77
2022-08-20T08:56:49.930Z,22.98
2022-08-20T08:57:45.765Z,23.08
2022-08-20T08:58:45.769Z,23.23
2022-08-20T08:59:58.401Z,23.41
2022-08-20T09:00:52.824Z,23.54
2022-08-20T09:01:54.054Z,23.73
2022-08-20T09:02:46.731Z,23.85
2022-08-20T09:03:45.700Z,23.92
2022-08-20T09:04:45.721Z,24.06
2022-08-20T09:05:45.689Z,23.96
2022-08-20T09:06:47.556Z,23.85
2022-08-20T09:07:45.680Z,23.76
2022-08-20T09:08:45.652Z,23.69
2022-08-20T09:09:45.663Z,23.63
2022-08-20T09:10:45.634Z,23.56
2022-08-20T09:11:45.624Z,23.52
2022-08-20T09:12:47.776Z,23.49
2022-08-20T09:13:45.606Z,23.48
2022-08-20T09:14:45.625Z,23.42
2022-08-20T09:15:45.595Z,23.37
2022-08-20T09:16:52.880Z,23.34
2022-08-20T09:17:46.558Z,23.33
2022-08-20T09:18:45.559Z,23.29
2022-08-20T09:19:45.567Z,23.28
2022-08-20T09:20:45.540Z,23.26
2022-08-20T09:21:45.518Z,23.25
2022-08-20T09:22:45.527Z,23.33
2022-08-20T09:23:45.500Z,23.52
2022-08-20T09:24:45.527Z,23.61
2022-08-20T09:25:45.482Z,23.74
2022-08-20T09:26:45.472Z,23.86
2022-08-20T09:27:45.462Z,24.03
2022-08-20T09:28:49.976Z,24.15
2022-08-20T09:29:46.461Z,24.19
2022-08-20T09:30:45.432Z,24.15
2022-08-20T09:31:45.424Z,24.13
2022-08-20T09:32:45.414Z,24.19
2022-08-20T09:33:45.403Z,24.36
2022-08-20T09:34:45.421Z,24.48
2022-08-20T09:35:45.384Z,24.65
2022-08-20T09:36:45.376Z,24.79
2022-08-20T09:37:45.356Z,24.93
2022-08-20T09:38:45.357Z,25.04
2022-08-20T09:39:45.438Z,25.14
2022-08-20T09:40:45.344Z,25.14
2022-08-20T09:41:45.330Z,25.06
2022-08-20T09:42:45.319Z,25.04
2022-08-20T09:43:45.305Z,24.99
2022-08-20T09:44:45.318Z,24.91
2022-08-20T09:45:45.279Z,24.84
2022-08-20T09:46:45.271Z,24.78
2022-08-20T09:47:56.220Z,24.68
2022-08-20T09:48:46.250Z,24.62
2022-08-20T09:49:45.271Z,24.55
2022-08-20T09:50:45.232Z,24.47
2022-08-20T09:51:45.222Z,24.38
2022-08-20T09:52:45.213Z,24.28
2022-08-20T09:53:45.204Z,24.18
2022-08-20T09:54:46.440Z,24.08
2022-08-20T09:55:45.185Z,24.03
2022-08-20T09:56:45.175Z,23.97
2022-08-20T09:57:45.172Z,23.88
2022-08-20T09:58:45.145Z,23.79
2022-08-20T09:59:45.171Z,23.73
2022-08-20T10:00:45.127Z,23.67
2022-08-20T10:01:45.162Z,23.60
2022-08-20T10:02:45.119Z,23.52
2022-08-20T10:03:45.105Z,23.48
2022-08-20T10:04:45.118Z,23.44
2022-08-20T10:05:45.086Z,23.39
2022-08-20T10:06:45.072Z,23.34
2022-08-20T10:07:45.061Z,23.29
2022-08-20T10:08:45.049Z,23.26
2022-08-20T10:09:45.070Z,23.26
2022-08-20T10:10:45.033Z,23.22
2022-08-20T10:11:45.030Z,23.21
2022-08-20T10:12:45.028Z,23.17
2022-08-20T10:13:45.003Z,23.15
2022-08-20T10:14:45.012Z,23.13
2022-08-20T10:15:44.984Z,23.11
2022-08-20T10:16:44.979Z,23.10
2022-08-20T10:17:44.963Z,23.10
2022-08-20T10:18:44.953Z,23.08
2022-08-20T10:19:44.964Z,23.08
2022-08-20T10:20:44.924Z,23.08
2022-08-20T10:21:44.926Z,23.06
2022-08-20T10:22:44.905Z,23.06
2022-08-20T10:23:44.905Z,23.06
2022-08-20T10:24:44.918Z,23.04
2022-08-20T10:25:44.885Z,23.06
2022-08-20T10:26:44.867Z,23.03
2022-08-20T10:27:44.875Z,23.22
2022-08-20T10:28:44.849Z,23.54
2022-08-20T10:29:47.071Z,23.82
2022-08-20T10:30:44.830Z,23.96
2022-08-20T10:31:44.826Z,24.01
2022-08-20T10:32:44.811Z,24.25
2022-08-20T10:33:44.804Z,24.45
2022-08-20T10:34:44.811Z,24.59
2022-08-20T10:35:44.782Z,24.55
2022-08-20T10:36:44.771Z,24.59
2022-08-20T10:37:44.764Z,24.79
2022-08-20T10:38:44.750Z,24.99
2022-08-20T10:39:44.797Z,25.09
2022-08-20T10:40:52.226Z,25.23
2022-08-20T10:41:45.723Z,25.15
2022-08-20T10:42:44.708Z,25.01
2022-08-20T10:43:44.702Z,24.93
2022-08-20T10:44:44.729Z,24.84
2022-08-20T10:45:44.685Z,24.78
2022-08-20T10:46:44.668Z,24.81
2022-08-20T10:47:44.660Z,24.89
2022-08-20T10:48:44.667Z,24.93
2022-08-20T10:49:44.659Z,24.97
2022-08-20T10:50:44.627Z,24.93
2022-08-20T10:51:44.626Z,25.00
2022-08-20T10:52:44.609Z,25.00
2022-08-20T10:53:44.601Z,24.94
2022-08-20T10:54:44.614Z,24.85
2022-08-20T10:55:44.591Z,24.81
2022-08-20T10:56:44.573Z,24.74
2022-08-20T10:57:44.579Z,24.68
2022-08-20T10:58:44.639Z,24.65
2022-08-20T10:59:44.574Z,24.62
2022-08-20T11:00:44.537Z,24.56
2022-08-20T11:01:44.539Z,24.48
2022-08-20T11:02:44.506Z,24.44
2022-08-20T11:03:44.504Z,24.37
2022-08-20T11:04:44.513Z,24.33
2022-08-20T11:05:44.494Z,24.29
2022-08-20T11:06:44.484Z,24.25
2022-08-20T11:07:54.832Z,24.25
2022-08-20T11:08:45.447Z,24.19
2022-08-20T11:09:44.466Z,24.18
2022-08-20T11:10:44.428Z,24.15
2022-08-20T11:11:44.418Z,24.11
2022-08-20T11:12:45.545Z,24.10
2022-08-20T11:13:44.400Z,24.08
2022-08-20T11:14:44.419Z,24.07
2022-08-20T11:15:44.388Z,24.06
2022-08-20T11:16:44.373Z,24.04
2022-08-20T11:17:44.359Z,24.03
2022-08-20T11:18:47.701Z,24.01
2022-08-20T11:19:44.349Z,24.01
2022-08-20T11:20:44.352Z,24.03
2022-08-20T11:21:44.340Z,24.13
2022-08-20T11:22:44.302Z,24.36
2022-08-20T11:23:44.303Z,24.36
2022-08-20T11:24:44.283Z,24.36
2022-08-20T11:25:44.304Z,24.34
2022-08-20T11:26:44.264Z,24.40
2022-08-20T11:27:44.270Z,24.60
2022-08-20T11:28:44.244Z,24.78
2022-08-20T11:29:44.236Z,24.93
2022-08-20T11:30:44.254Z,25.12
2022-08-20T11:31:44.223Z,25.28
2022-08-20T11:32:44.206Z,25.45
2022-08-20T11:33:44.206Z,25.56
2022-08-20T11:34:44.188Z,25.68
2022-08-20T11:35:49.741Z,25.81
2022-08-20T11:36:45.169Z,25.89
2022-08-20T11:37:44.158Z,25.95
2022-08-20T11:38:44.148Z,26.01
2022-08-20T11:39:44.202Z,26.12
2022-08-20T11:40:44.129Z,26.26
2022-08-20T11:41:45.883Z,26.27
2022-08-20T11:43:04.388Z,26.33
2022-08-20T11:43:59.496Z,26.27
2022-08-20T11:44:45.110Z,26.20
2022-08-20T11:45:44.086Z,26.12
2022-08-20T11:46:44.072Z,26.07
2022-08-20T11:47:44.064Z,26.00
2022-08-20T11:48:44.054Z,25.95
2022-08-20T11:49:44.074Z,25.90
2022-08-20T11:50:44.033Z,25.88
2022-08-20T11:51:49.709Z,25.82
2022-08-20T11:52:45.025Z,25.74
2022-08-20T11:53:44.001Z,25.67
2022-08-20T11:54:44.006Z,25.58
2022-08-20T11:55:43.997Z,25.49
2022-08-20T11:56:46.096Z,25.45
2022-08-20T11:57:43.959Z,25.40
2022-08-20T11:58:43.950Z,25.34
2022-08-20T11:59:43.960Z,25.27
2022-08-20T12:00:43.932Z,25.21
2022-08-20T12:01:46.550Z,25.14
2022-08-20T12:02:44.963Z,25.04
2022-08-20T12:03:43.902Z,24.99
2022-08-20T12:04:43.921Z,24.89
2022-08-20T12:05:43.940Z,24.82
2022-08-20T12:06:43.862Z,24.75
2022-08-20T12:07:43.853Z,24.65
2022-08-20T12:08:43.844Z,24.59
2022-08-20T12:09:51.201Z,24.52
2022-08-20T12:10:44.825Z,24.40
2022-08-20T12:11:43.824Z,24.28
2022-08-20T12:12:43.804Z,24.18
2022-08-20T12:13:48.400Z,24.08
2022-08-20T12:14:44.807Z,24.00
2022-08-20T12:15:43.778Z,23.82
2022-08-20T12:16:43.766Z,23.69
2022-08-20T12:17:43.758Z,23.59
2022-08-20T12:18:43.738Z,23.46
2022-08-20T12:19:43.768Z,23.31
2022-08-20T12:20:43.720Z,23.11
2022-08-20T12:21:43.719Z,22.98
2022-08-20T12:22:43.699Z,22.85
2022-08-20T12:23:43.698Z,22.76
2022-08-20T12:24:43.701Z,22.70
2022-08-20T12:25:43.681Z,22.64
2022-08-20T12:26:43.686Z,22.58
2022-08-20T12:27:43.653Z,22.56
2022-08-20T12:28:43.643Z,22.51
2022-08-20T12:29:43.669Z,22.49
2022-08-20T12:30:43.623Z,22.49
2022-08-20T12:31:43.614Z,22.51
2022-08-20T12:32:43.604Z,22.49
2022-08-20T12:33:43.607Z,22.49
2022-08-20T12:34:43.612Z,22.51
2022-08-20T12:35:43.583Z,22.52
2022-08-20T12:36:43.567Z,22.53
2022-08-20T12:37:43.565Z,22.55
2022-08-20T12:38:43.569Z,22.55
2022-08-20T12:39:43.605Z,22.56
2022-08-20T12:40:43.519Z,22.58
2022-08-20T12:41:43.516Z,22.59
2022-08-20T12:42:43.498Z,22.61
2022-08-20T12:43:43.491Z,22.61
2022-08-20T12:44:43.510Z,22.64
2022-08-20T12:45:43.470Z,22.64
2022-08-20T12:46:43.460Z,22.62
2022-08-20T12:47:44.972Z,22.61
2022-08-20T12:48:43.451Z,22.59
2022-08-20T12:49:43.433Z,22.56
2022-08-20T12:50:43.441Z,22.52
2022-08-20T12:51:43.412Z,22.48
2022-08-20T12:52:43.395Z,22.44